sensor_id;sensor_type;location;lat;lon;timestamp;P1;durP1;ratioP1;P2;durP2;ratioP2
6937;SDS011;40040;42.706;23.372;2024-03-23T00:55:07;22.90;;;11.43;;
6937;SDS011;40040;42.706;23.372;2024-03-23T00:57:34;22.07;;;11.53;;
6937;SDS011;40040;42.706;23.372;2024-03-23T01:00:00;22.27;;;12.13;;
6937;SDS011;40040;42.706;23.372;2024-03-23T01:02:26;26.47;;;13.00;;
6937;SDS011;40040;42.706;23.372;2024-03-23T01:04:52;29.37;;;13.00;;
6937;SDS011;40040;42.706;23.372;2024-03-23T01:07:19;25.47;;;13.47;;
6937;SDS011;40040;42.706;23.372;2024-03-23T01:09:46;29.03;;;14.60;;
6937;SDS011;40040;42.706;23.372;2024-03-23T01:12:13;28.90;;;13.90;;
6937;SDS011;40040;42.706;23.372;2024-03-23T01:14:39;24.83;;;13.67;;
6937;SDS011;40040;42.706;23.372;2024-03-23T01:17:06;27.90;;;13.83;;
6937;SDS011;40040;42.706;23.372;2024-03-23T01:19:33;28.60;;;13.40;;
6937;SDS011;40040;42.706;23.372;2024-03-23T01:22:00;27.03;;;13.73;;
6937;SDS011;40040;42.706;23.372;2024-03-23T01:24:26;22.80;;;12.93;;
6937;SDS011;40040;42.706;23.372;2024-03-23T01:26:54;20.90;;;11.83;;
6937;SDS011;40040;42.706;23.372;2024-03-23T01:29:20;21.33;;;10.60;;
6937;SDS011;40040;42.706;23.372;2024-03-23T01:31:47;22.73;;;11.03;;
6937;SDS011;40040;42.706;23.372;2024-03-23T01:34:13;19.70;;;10.83;;
6937;SDS011;40040;42.706;23.372;2024-03-23T01:36:40;21.30;;;11.00;;
6937;SDS011;40040;42.706;23.372;2024-03-23T01:39:06;17.33;;;10.63;;
6937;SDS011;40040;42.706;23.372;2024-03-23T01:41:34;20.60;;;11.10;;
6937;SDS011;40040;42.706;23.372;2024-03-23T01:44:01;21.70;;;11.20;;
6937;SDS011;40040;42.706;23.372;2024-03-23T01:46:32;24.47;;;10.67;;
6937;SDS011;40040;42.706;23.372;2024-03-23T01:48:57;20.73;;;11.50;;
6937;SDS011;40040;42.706;23.372;2024-03-23T01:51:25;20.00;;;10.87;;
6937;SDS011;40040;42.706;23.372;2024-03-23T01:53:51;19.37;;;10.70;;
6937;SDS011;40040;42.706;23.372;2024-03-23T01:56:20;19.37;;;10.90;;
6937;SDS011;40040;42.706;23.372;2024-03-23T01:58:46;21.03;;;11.47;;
6937;SDS011;40040;42.706;23.372;2024-03-23T02:01:14;23.47;;;11.87;;
6937;SDS011;40040;42.706;23.372;2024-03-23T02:03:40;23.17;;;13.30;;
6937;SDS011;40040;42.706;23.372;2024-03-23T02:06:06;24.60;;;12.20;;
6937;SDS011;40040;42.706;23.372;2024-03-23T02:08:34;27.60;;;12.60;;
6937;SDS011;40040;42.706;23.372;2024-03-23T02:11:01;25.00;;;12.83;;
6937;SDS011;40040;42.706;23.372;2024-03-23T02:13:26;23.73;;;12.17;;
6937;SDS011;40040;42.706;23.372;2024-03-23T02:15:53;24.87;;;13.50;;
6937;SDS011;40040;42.706;23.372;2024-03-23T02:18:20;28.07;;;12.77;;
6937;SDS011;40040;42.706;23.372;2024-03-23T02:20:47;28.70;;;12.03;;
6937;SDS011;40040;42.706;23.372;2024-03-23T02:23:14;24.37;;;12.30;;
6937;SDS011;40040;42.706;23.372;2024-03-23T02:25:41;25.77;;;11.90;;
6937;SDS011;40040;42.706;23.372;2024-03-23T02:28:07;26.73;;;12.33;;
6937;SDS011;40040;42.706;23.372;2024-03-23T02:30:34;24.53;;;12.83;;
6937;SDS011;40040;42.706;23.372;2024-03-23T02:33:00;28.43;;;12.70;;
6937;SDS011;40040;42.706;23.372;2024-03-23T02:35:27;28.33;;;12.70;;
6937;SDS011;40040;42.706;23.372;2024-03-23T02:37:53;27.60;;;12.60;;
6937;SDS011;40040;42.706;23.372;2024-03-23T02:40:22;24.93;;;12.50;;
6937;SDS011;40040;42.706;23.372;2024-03-23T02:42:48;29.73;;;12.90;;
6937;SDS011;40040;42.706;23.372;2024-03-23T02:45:15;25.47;;;12.47;;
6937;SDS011;40040;42.706;23.372;2024-03-23T02:47:41;26.43;;;12.47;;
6937;SDS011;40040;42.706;23.372;2024-03-23T02:50:08;22.10;;;11.80;;
6937;SDS011;40040;42.706;23.372;2024-03-23T02:52:34;22.93;;;11.57;;
6937;SDS011;40040;42.706;23.372;2024-03-23T02:55:01;20.67;;;10.43;;
6937;SDS011;40040;42.706;23.372;2024-03-23T02:57:28;24.20;;;10.63;;
6937;SDS011;40040;42.706;23.372;2024-03-23T02:59:55;20.30;;;11.20;;
6937;SDS011;40040;42.706;23.372;2024-03-23T03:02:21;23.37;;;10.73;;
6937;SDS011;40040;42.706;23.372;2024-03-23T03:04:48;20.97;;;10.40;;
6937;SDS011;40040;42.706;23.372;2024-03-23T03:07:14;20.57;;;9.90;;
6937;SDS011;40040;42.706;23.372;2024-03-23T03:09:41;19.93;;;10.03;;
6937;SDS011;40040;42.706;23.372;2024-03-23T03:12:06;20.77;;;10.77;;
6937;SDS011;40040;42.706;23.372;2024-03-23T03:14:35;18.83;;;9.60;;
6937;SDS011;40040;42.706;23.372;2024-03-23T03:17:00;22.33;;;10.90;;
6937;SDS011;40040;42.706;23.372;2024-03-23T03:19:27;18.83;;;10.00;;
6937;SDS011;40040;42.706;23.372;2024-03-23T03:21:53;23.07;;;10.83;;
6937;SDS011;40040;42.706;23.372;2024-03-23T03:24:19;20.17;;;10.20;;
6937;SDS011;40040;42.706;23.372;2024-03-23T03:26:45;20.00;;;10.60;;
6937;SDS011;40040;42.706;23.372;2024-03-23T03:29:12;19.03;;;9.70;;
6937;SDS011;40040;42.706;23.372;2024-03-23T03:31:39;19.47;;;9.83;;
6937;SDS011;40040;42.706;23.372;2024-03-23T03:34:06;20.93;;;9.40;;
6937;SDS011;40040;42.706;23.372;2024-03-23T03:36:31;13.97;;;8.13;;
6937;SDS011;40040;42.706;23.372;2024-03-23T03:38:58;16.23;;;8.23;;
6937;SDS011;40040;42.706;23.372;2024-03-23T03:41:24;16.03;;;8.17;;
6937;SDS011;40040;42.706;23.372;2024-03-23T03:43:50;15.50;;;8.20;;
6937;SDS011;40040;42.706;23.372;2024-03-23T03:46:16;14.23;;;7.83;;
6937;SDS011;40040;42.706;23.372;2024-03-23T03:48:45;16.07;;;8.13;;
6937;SDS011;40040;42.706;23.372;2024-03-23T03:51:12;18.13;;;8.43;;
6937;SDS011;40040;42.706;23.372;2024-03-23T03:53:39;15.23;;;8.27;;
6937;SDS011;40040;42.706;23.372;2024-03-23T03:56:05;16.77;;;8.63;;
6937;SDS011;40040;42.706;23.372;2024-03-23T03:58:32;13.27;;;7.20;;
6937;SDS011;40040;42.706;23.372;2024-03-23T04:00:59;14.97;;;7.50;;
6937;SDS011;40040;42.706;23.372;2024-03-23T04:03:25;15.77;;;8.00;;
6937;SDS011;40040;42.706;23.372;2024-03-23T04:05:53;14.73;;;7.33;;
6937;SDS011;40040;42.706;23.372;2024-03-23T04:08:19;14.27;;;7.40;;
6937;SDS011;40040;42.706;23.372;2024-03-23T04:10:46;10.73;;;7.03;;
6937;SDS011;40040;42.706;23.372;2024-03-23T04:13:12;14.63;;;7.40;;
6937;SDS011;40040;42.706;23.372;2024-03-23T04:15:39;16.10;;;7.53;;
6937;SDS011;40040;42.706;23.372;2024-03-23T04:18:05;16.80;;;7.70;;
6937;SDS011;40040;42.706;23.372;2024-03-23T04:20:32;15.53;;;8.17;;
6937;SDS011;40040;42.706;23.372;2024-03-23T04:22:59;15.30;;;6.97;;
6937;SDS011;40040;42.706;23.372;2024-03-23T04:25:26;15.00;;;7.83;;
6937;SDS011;40040;42.706;23.372;2024-03-23T04:27:52;22.10;;;10.80;;
6937;SDS011;40040;42.706;23.372;2024-03-23T04:30:19;20.30;;;11.20;;
6937;SDS011;40040;42.706;23.372;2024-03-23T04:32:44;18.40;;;8.90;;
6937;SDS011;40040;42.706;23.372;2024-03-23T04:35:12;18.00;;;8.97;;
6937;SDS011;40040;42.706;23.372;2024-03-23T04:37:38;15.30;;;8.33;;
6937;SDS011;40040;42.706;23.372;2024-03-23T04:40:08;46.83;;;17.47;;
6937;SDS011;40040;42.706;23.372;2024-03-23T04:42:36;97.97;;;32.07;;
6937;SDS011;40040;42.706;23.372;2024-03-23T04:45:02;115.57;;;37.13;;
6937;SDS011;40040;42.706;23.372;2024-03-23T04:47:31;53.90;;;21.53;;
6937;SDS011;40040;42.706;23.372;2024-03-23T04:49:58;18.73;;;10.30;;
6937;SDS011;40040;42.706;23.372;2024-03-23T04:52:23;18.73;;;9.70;;
6937;SDS011;40040;42.706;23.372;2024-03-23T04:54:50;17.63;;;9.10;;
6937;SDS011;40040;42.706;23.372;2024-03-23T04:57:18;17.30;;;8.60;;
6937;SDS011;40040;42.706;23.372;2024-03-23T04:59:44;18.83;;;8.83;;
6937;SDS011;40040;42.706;23.372;2024-03-23T05:02:11;16.20;;;8.90;;
6937;SDS011;40040;42.706;23.372;2024-03-23T05:04:36;15.37;;;7.93;;
6937;SDS011;40040;42.706;23.372;2024-03-23T05:07:03;12.03;;;6.40;;
6937;SDS011;40040;42.706;23.372;2024-03-23T05:09:29;10.57;;;6.23;;
6937;SDS011;40040;42.706;23.372;2024-03-23T05:11:58;13.57;;;6.90;;
6937;SDS011;40040;42.706;23.372;2024-03-23T05:14:25;7.60;;;5.03;;
6937;SDS011;40040;42.706;23.372;2024-03-23T05:16:52;8.27;;;5.40;;
6937;SDS011;40040;42.706;23.372;2024-03-23T05:19:18;9.53;;;5.73;;
6937;SDS011;40040;42.706;23.372;2024-03-23T05:21:45;9.20;;;5.90;;
6937;SDS011;40040;42.706;23.372;2024-03-23T05:24:11;11.43;;;6.33;;
6937;SDS011;40040;42.706;23.372;2024-03-23T05:26:38;11.87;;;5.70;;
6937;SDS011;40040;42.706;23.372;2024-03-23T05:29:04;9.50;;;6.30;;
6937;SDS011;40040;42.706;23.372;2024-03-23T05:31:33;19.50;;;7.23;;
6937;SDS011;40040;42.706;23.372;2024-03-23T05:33:59;13.30;;;6.20;;
6937;SDS011;40040;42.706;23.372;2024-03-23T05:36:26;9.87;;;6.63;;
6937;SDS011;40040;42.706;23.372;2024-03-23T05:38:52;10.33;;;7.07;;
6937;SDS011;40040;42.706;23.372;2024-03-23T05:41:18;12.93;;;6.63;;
6937;SDS011;40040;42.706;23.372;2024-03-23T05:43:44;10.87;;;6.67;;
6937;SDS011;40040;42.706;23.372;2024-03-23T05:46:11;11.77;;;6.73;;
6937;SDS011;40040;42.706;23.372;2024-03-23T05:48:38;12.97;;;7.23;;
6937;SDS011;40040;42.706;23.372;2024-03-23T05:51:05;12.13;;;7.47;;
6937;SDS011;40040;42.706;23.372;2024-03-23T05:53:31;16.07;;;8.27;;
6937;SDS011;40040;42.706;23.372;2024-03-23T05:56:01;16.07;;;7.73;;
6937;SDS011;40040;42.706;23.372;2024-03-23T05:58:29;12.80;;;7.93;;
6937;SDS011;40040;42.706;23.372;2024-03-23T06:00:59;17.43;;;8.37;;
6937;SDS011;40040;42.706;23.372;2024-03-23T06:03:26;14.47;;;7.93;;
6937;SDS011;40040;42.706;23.372;2024-03-23T06:05:54;14.30;;;8.33;;
6937;SDS011;40040;42.706;23.372;2024-03-23T06:08:21;17.10;;;8.63;;
6937;SDS011;40040;42.706;23.372;2024-03-23T06:10:49;15.97;;;8.90;;
6937;SDS011;40040;42.706;23.372;2024-03-23T06:13:15;21.33;;;9.47;;
6937;SDS011;40040;42.706;23.372;2024-03-23T06:15:42;16.43;;;8.97;;
6937;SDS011;40040;42.706;23.372;2024-03-23T06:18:08;16.80;;;9.50;;
6937;SDS011;40040;42.706;23.372;2024-03-23T06:20:35;17.43;;;9.67;;
6937;SDS011;40040;42.706;23.372;2024-03-23T06:23:02;21.87;;;10.30;;
6937;SDS011;40040;42.706;23.372;2024-03-23T06:25:29;19.00;;;10.40;;
6937;SDS011;40040;42.706;23.372;2024-03-23T06:27:55;22.23;;;11.37;;
6937;SDS011;40040;42.706;23.372;2024-03-23T06:30:23;19.07;;;10.20;;
6937;SDS011;40040;42.706;23.372;2024-03-23T06:32:49;21.00;;;10.43;;
6937;SDS011;40040;42.706;23.372;2024-03-23T06:35:16;18.27;;;9.83;;
6937;SDS011;40040;42.706;23.372;2024-03-23T06:37:41;17.37;;;9.77;;
6937;SDS011;40040;42.706;23.372;2024-03-23T06:40:09;19.93;;;10.57;;
6937;SDS011;40040;42.706;23.372;2024-03-23T06:42:36;21.87;;;11.70;;
6937;SDS011;40040;42.706;23.372;2024-03-23T06:45:03;20.37;;;10.97;;
6937;SDS011;40040;42.706;23.372;2024-03-23T06:47:30;22.67;;;10.95;;
6937;SDS011;40040;42.706;23.372;2024-03-23T06:49:57;18.90;;;11.17;;
6937;SDS011;40040;42.706;23.372;2024-03-23T06:52:23;18.02;;;11.55;;
6937;SDS011;40040;42.706;23.372;2024-03-23T06:54:49;20.42;;;11.70;;
6937;SDS011;40040;42.706;23.372;2024-03-23T06:57:17;23.83;;;11.73;;
6937;SDS011;40040;42.706;23.372;2024-03-23T06:59:43;23.05;;;11.93;;
6937;SDS011;40040;42.706;23.372;2024-03-23T07:02:09;18.88;;;11.75;;
6937;SDS011;40040;42.706;23.372;2024-03-23T07:04:35;20.15;;;11.48;;
6937;SDS011;40040;42.706;23.372;2024-03-23T07:07:04;19.90;;;11.60;;
6937;SDS011;40040;42.706;23.372;2024-03-23T07:09:30;20.98;;;12.40;;
6937;SDS011;40040;42.706;23.372;2024-03-23T07:11:57;23.02;;;12.68;;
6937;SDS011;40040;42.706;23.372;2024-03-23T07:14:24;22.15;;;12.40;;
6937;SDS011;40040;42.706;23.372;2024-03-23T07:16:51;23.40;;;13.48;;
6937;SDS011;40040;42.706;23.372;2024-03-23T07:19:17;20.90;;;12.90;;
6937;SDS011;40040;42.706;23.372;2024-03-23T07:21:44;24.80;;;13.05;;
6937;SDS011;40040;42.706;23.372;2024-03-23T07:24:10;24.48;;;13.15;;
6937;SDS011;40040;42.706;23.372;2024-03-23T07:26:37;25.20;;;13.85;;
6937;SDS011;40040;42.706;23.372;2024-03-23T07:29:03;20.90;;;12.88;;
6937;SDS011;40040;42.706;23.372;2024-03-23T07:31:31;23.02;;;12.88;;
6937;SDS011;40040;42.706;23.372;2024-03-23T07:33:57;20.10;;;12.30;;
6937;SDS011;40040;42.706;23.372;2024-03-23T07:36:24;18.52;;;11.40;;
6937;SDS011;40040;42.706;23.372;2024-03-23T07:38:50;26.75;;;12.40;;
6937;SDS011;40040;42.706;23.372;2024-03-23T07:41:18;25.98;;;12.60;;
6937;SDS011;40040;42.706;23.372;2024-03-23T07:43:45;30.80;;;14.95;;
6937;SDS011;40040;42.706;23.372;2024-03-23T07:46:14;22.42;;;12.40;;
6937;SDS011;40040;42.706;23.372;2024-03-23T07:48:42;24.45;;;13.55;;
6937;SDS011;40040;42.706;23.372;2024-03-23T07:51:10;23.50;;;11.73;;
6937;SDS011;40040;42.706;23.372;2024-03-23T07:53:37;21.17;;;11.30;;
6937;SDS011;40040;42.706;23.372;2024-03-23T07:56:05;21.67;;;11.85;;
6937;SDS011;40040;42.706;23.372;2024-03-23T07:58:32;19.98;;;11.00;;
6937;SDS011;40040;42.706;23.372;2024-03-23T08:01:03;17.58;;;9.55;;
6937;SDS011;40040;42.706;23.372;2024-03-23T08:03:30;14.40;;;9.20;;
6937;SDS011;40040;42.706;23.372;2024-03-23T08:05:58;13.48;;;8.73;;
6937;SDS011;40040;42.706;23.372;2024-03-23T08:08:32;20.17;;;12.10;;
6937;SDS011;40040;42.706;23.372;2024-03-23T08:10:58;20.13;;;10.40;;
6937;SDS011;40040;42.706;23.372;2024-03-23T08:13:24;15.77;;;9.88;;
6937;SDS011;40040;42.706;23.372;2024-03-23T08:15:51;15.23;;;10.00;;
6937;SDS011;40040;42.706;23.372;2024-03-23T08:18:17;15.60;;;9.88;;
6937;SDS011;40040;42.706;23.372;2024-03-23T08:20:43;19.17;;;9.73;;
6937;SDS011;40040;42.706;23.372;2024-03-23T08:23:10;14.52;;;9.57;;
6937;SDS011;40040;42.706;23.372;2024-03-23T08:25:37;17.17;;;10.38;;
6937;SDS011;40040;42.706;23.372;2024-03-23T08:28:03;16.83;;;9.23;;
6937;SDS011;40040;42.706;23.372;2024-03-23T08:30:30;14.00;;;9.10;;
6937;SDS011;40040;42.706;23.372;2024-03-23T08:32:56;13.30;;;9.10;;
6937;SDS011;40040;42.706;23.372;2024-03-23T08:35:24;14.32;;;9.27;;
6937;SDS011;40040;42.706;23.372;2024-03-23T08:37:50;17.60;;;9.70;;
6937;SDS011;40040;42.706;23.372;2024-03-23T08:40:18;14.55;;;9.18;;
6937;SDS011;40040;42.706;23.372;2024-03-23T08:42:44;13.18;;;9.18;;
6937;SDS011;40040;42.706;23.372;2024-03-23T08:45:10;15.70;;;10.00;;
6937;SDS011;40040;42.706;23.372;2024-03-23T08:47:36;13.13;;;9.13;;
6937;SDS011;40040;42.706;23.372;2024-03-23T08:50:03;13.57;;;9.00;;
6937;SDS011;40040;42.706;23.372;2024-03-23T08:52:30;12.43;;;9.02;;
6937;SDS011;40040;42.706;23.372;2024-03-23T08:54:56;12.38;;;8.52;;
6937;SDS011;40040;42.706;23.372;2024-03-23T08:57:24;14.45;;;9.10;;
6937;SDS011;40040;42.706;23.372;2024-03-23T08:59:50;13.25;;;8.88;;
6937;SDS011;40040;42.706;23.372;2024-03-23T09:02:17;15.85;;;9.40;;
6937;SDS011;40040;42.706;23.372;2024-03-23T09:04:43;15.75;;;9.48;;
6937;SDS011;40040;42.706;23.372;2024-03-23T09:07:10;13.52;;;9.18;;
6937;SDS011;40040;42.706;23.372;2024-03-23T09:09:37;12.55;;;8.52;;
6937;SDS011;40040;42.706;23.372;2024-03-23T09:12:04;14.30;;;9.68;;
6937;SDS011;40040;42.706;23.372;2024-03-23T09:14:32;11.85;;;8.27;;
6937;SDS011;40040;42.706;23.372;2024-03-23T09:16:59;13.35;;;9.65;;
6937;SDS011;40040;42.706;23.372;2024-03-23T09:19:26;13.35;;;10.07;;
6937;SDS011;40040;42.706;23.372;2024-03-23T09:21:53;15.45;;;9.00;;
6937;SDS011;40040;42.706;23.372;2024-03-23T09:24:20;14.68;;;9.05;;
6937;SDS011;40040;42.706;23.372;2024-03-23T09:26:46;11.57;;;8.52;;
6937;SDS011;40040;42.706;23.372;2024-03-23T09:29:13;16.55;;;9.45;;
6937;SDS011;40040;42.706;23.372;2024-03-23T09:31:40;15.18;;;9.38;;
6937;SDS011;40040;42.706;23.372;2024-03-23T09:34:07;12.40;;;9.43;;
6937;SDS011;40040;42.706;23.372;2024-03-23T09:36:33;15.95;;;9.40;;
6937;SDS011;40040;42.706;23.372;2024-03-23T09:39:00;15.63;;;9.90;;
6937;SDS011;40040;42.706;23.372;2024-03-23T09:41:26;13.77;;;9.63;;
6937;SDS011;40040;42.706;23.372;2024-03-23T09:43:52;14.55;;;10.00;;
6937;SDS011;40040;42.706;23.372;2024-03-23T09:46:18;14.68;;;10.15;;
6937;SDS011;40040;42.706;23.372;2024-03-23T09:48:47;14.95;;;10.23;;
6937;SDS011;40040;42.706;23.372;2024-03-23T09:51:13;15.70;;;10.45;;
6937;SDS011;40040;42.706;23.372;2024-03-23T09:53:40;15.40;;;10.93;;
6937;SDS011;40040;42.706;23.372;2024-03-23T09:56:07;16.08;;;10.85;;
6937;SDS011;40040;42.706;23.372;2024-03-23T09:58:34;18.70;;;11.52;;
6937;SDS011;40040;42.706;23.372;2024-03-23T10:01:00;16.02;;;10.73;;
6937;SDS011;40040;42.706;23.372;2024-03-23T10:03:28;15.70;;;10.98;;
6937;SDS011;40040;42.706;23.372;2024-03-23T10:06:02;13.50;;;11.18;;
6937;SDS011;40040;42.706;23.372;2024-03-23T10:08:30;15.07;;;11.57;;
6937;SDS011;40040;42.706;23.372;2024-03-23T10:10:56;18.83;;;11.55;;
6937;SDS011;40040;42.706;23.372;2024-03-23T10:13:26;14.02;;;10.98;;
6937;SDS011;40040;42.706;23.372;2024-03-23T10:15:54;16.65;;;11.75;;
6937;SDS011;40040;42.706;23.372;2024-03-23T10:18:23;16.17;;;11.75;;
6937;SDS011;40040;42.706;23.372;2024-03-23T10:21:06;15.50;;;10.77;;
6937;SDS011;40040;42.706;23.372;2024-03-23T10:23:36;17.85;;;12.32;;
6937;SDS011;40040;42.706;23.372;2024-03-23T10:26:13;16.02;;;11.30;;
6937;SDS011;40040;42.706;23.372;2024-03-23T10:31:33;15.52;;;11.77;;
6937;SDS011;40040;42.706;23.372;2024-03-23T10:34:02;17.88;;;12.07;;
6937;SDS011;40040;42.706;23.372;2024-03-23T10:36:29;18.30;;;11.85;;
6937;SDS011;40040;42.706;23.372;2024-03-23T10:38:56;15.25;;;11.90;;
6937;SDS011;40040;42.706;23.372;2024-03-23T10:41:24;18.30;;;11.70;;
6937;SDS011;40040;42.706;23.372;2024-03-23T10:43:53;19.63;;;11.15;;
6937;SDS011;40040;42.706;23.372;2024-03-23T10:46:21;17.45;;;11.70;;
6937;SDS011;40040;42.706;23.372;2024-03-23T10:48:48;15.50;;;11.70;;
6937;SDS011;40040;42.706;23.372;2024-03-23T10:51:14;16.02;;;11.27;;
6937;SDS011;40040;42.706;23.372;2024-03-23T10:53:42;14.48;;;11.15;;
6937;SDS011;40040;42.706;23.372;2024-03-23T10:56:10;12.30;;;9.77;;
6937;SDS011;40040;42.706;23.372;2024-03-23T10:58:39;16.90;;;10.55;;
6937;SDS011;40040;42.706;23.372;2024-03-23T11:01:06;15.63;;;10.35;;
6937;SDS011;40040;42.706;23.372;2024-03-23T11:03:33;13.43;;;10.35;;
6937;SDS011;40040;42.706;23.372;2024-03-23T11:06:00;16.85;;;10.50;;
6937;SDS011;40040;42.706;23.372;2024-03-23T11:08:31;13.05;;;9.80;;
6937;SDS011;40040;42.706;23.372;2024-03-23T11:11:15;11.77;;;8.65;;
6937;SDS011;40040;42.706;23.372;2024-03-23T11:13:44;11.35;;;8.82;;
6937;SDS011;40040;42.706;23.372;2024-03-23T11:16:13;10.43;;;8.52;;
6937;SDS011;40040;42.706;23.372;2024-03-23T11:18:41;12.68;;;9.18;;
6937;SDS011;40040;42.706;23.372;2024-03-23T11:21:07;14.13;;;8.38;;
6937;SDS011;40040;42.706;23.372;2024-03-23T11:23:34;12.45;;;8.35;;
6937;SDS011;40040;42.706;23.372;2024-03-23T11:25:59;10.30;;;8.02;;
6937;SDS011;40040;42.706;23.372;2024-03-23T11:28:28;11.55;;;8.40;;
6937;SDS011;40040;42.706;23.372;2024-03-23T11:30:53;11.10;;;8.30;;
6937;SDS011;40040;42.706;23.372;2024-03-23T11:33:20;11.63;;;8.70;;
6937;SDS011;40040;42.706;23.372;2024-03-23T11:35:46;9.68;;;8.02;;
6937;SDS011;40040;42.706;23.372;2024-03-23T11:38:13;9.60;;;7.25;;
6937;SDS011;40040;42.706;23.372;2024-03-23T11:40:41;10.90;;;7.78;;
6937;SDS011;40040;42.706;23.372;2024-03-23T11:43:09;9.65;;;7.45;;
6937;SDS011;40040;42.706;23.372;2024-03-23T11:45:39;9.55;;;7.50;;
6937;SDS011;40040;42.706;23.372;2024-03-23T11:48:07;9.40;;;7.10;;
6937;SDS011;40040;42.706;23.372;2024-03-23T11:50:35;11.50;;;7.70;;
6937;SDS011;40040;42.706;23.372;2024-03-23T11:53:06;12.85;;;7.55;;
6937;SDS011;40040;42.706;23.372;2024-03-23T11:55:45;12.52;;;7.03;;
6937;SDS011;40040;42.706;23.372;2024-03-23T11:58:12;9.02;;;7.03;;
6937;SDS011;40040;42.706;23.372;2024-03-23T12:00:41;8.80;;;7.35;;
6937;SDS011;40040;42.706;23.372;2024-03-23T12:03:08;10.35;;;6.93;;
6937;SDS011;40040;42.706;23.372;2024-03-23T12:05:35;10.95;;;7.65;;
6937;SDS011;40040;42.706;23.372;2024-03-23T12:10:49;9.55;;;6.85;;
6937;SDS011;40040;42.706;23.372;2024-03-23T12:13:17;13.60;;;7.15;;
6937;SDS011;40040;42.706;23.372;2024-03-23T12:15:47;10.35;;;7.20;;
6937;SDS011;40040;42.706;23.372;2024-03-23T12:18:15;9.00;;;6.43;;
6937;SDS011;40040;42.706;23.372;2024-03-23T12:20:42;10.68;;;7.10;;
6937;SDS011;40040;42.706;23.372;2024-03-23T12:23:08;12.23;;;8.10;;
6937;SDS011;40040;42.706;23.372;2024-03-23T12:25:36;8.45;;;6.70;;
6937;SDS011;40040;42.706;23.372;2024-03-23T12:28:03;8.35;;;7.00;;
6937;SDS011;40040;42.706;23.372;2024-03-23T12:30:32;9.60;;;6.95;;
6937;SDS011;40040;42.706;23.372;2024-03-23T12:33:00;10.48;;;7.10;;
6937;SDS011;40040;42.706;23.372;2024-03-23T12:35:26;10.38;;;7.00;;
6937;SDS011;40040;42.706;23.372;2024-03-23T12:37:52;9.75;;;6.80;;
6937;SDS011;40040;42.706;23.372;2024-03-23T12:40:19;10.73;;;6.93;;
6937;SDS011;40040;42.706;23.372;2024-03-23T12:42:45;8.77;;;6.60;;
6937;SDS011;40040;42.706;23.372;2024-03-23T12:45:11;10.32;;;6.82;;
6937;SDS011;40040;42.706;23.372;2024-03-23T12:47:37;8.77;;;6.95;;
6937;SDS011;40040;42.706;23.372;2024-03-23T12:50:06;8.00;;;7.00;;
6937;SDS011;40040;42.706;23.372;2024-03-23T12:52:32;10.73;;;7.07;;
6937;SDS011;40040;42.706;23.372;2024-03-23T12:54:59;8.15;;;6.32;;
6937;SDS011;40040;42.706;23.372;2024-03-23T12:57:24;10.18;;;6.80;;
6937;SDS011;40040;42.706;23.372;2024-03-23T12:59:51;8.50;;;7.25;;
6937;SDS011;40040;42.706;23.372;2024-03-23T13:02:18;11.20;;;7.15;;
6937;SDS011;40040;42.706;23.372;2024-03-23T13:04:46;10.80;;;8.20;;
6937;SDS011;40040;42.706;23.372;2024-03-23T13:07:14;8.15;;;6.32;;
6937;SDS011;40040;42.706;23.372;2024-03-23T13:09:41;22.08;;;13.02;;
6937;SDS011;40040;42.706;23.372;2024-03-23T13:12:07;9.05;;;6.82;;
6937;SDS011;40040;42.706;23.372;2024-03-23T13:14:34;12.02;;;7.65;;
6937;SDS011;40040;42.706;23.372;2024-03-23T13:17:00;10.95;;;6.63;;
6937;SDS011;40040;42.706;23.372;2024-03-23T13:19:29;10.00;;;7.28;;
6937;SDS011;40040;42.706;23.372;2024-03-23T13:21:56;7.60;;;6.22;;
6937;SDS011;40040;42.706;23.372;2024-03-23T13:24:25;8.63;;;6.03;;
6937;SDS011;40040;42.706;23.372;2024-03-23T13:26:51;7.80;;;5.97;;
6937;SDS011;40040;42.706;23.372;2024-03-23T13:29:19;6.78;;;5.20;;
6937;SDS011;40040;42.706;23.372;2024-03-23T13:31:44;8.20;;;5.40;;
6937;SDS011;40040;42.706;23.372;2024-03-23T13:34:12;7.50;;;5.28;;
6937;SDS011;40040;42.706;23.372;2024-03-23T13:36:40;24.10;;;15.93;;
6937;SDS011;40040;42.706;23.372;2024-03-23T13:39:06;7.82;;;6.03;;
6937;SDS011;40040;42.706;23.372;2024-03-23T13:41:37;6.38;;;5.38;;
6937;SDS011;40040;42.706;23.372;2024-03-23T13:44:05;13.30;;;6.90;;
6937;SDS011;40040;42.706;23.372;2024-03-23T13:46:31;5.72;;;3.05;;
6937;SDS011;40040;42.706;23.372;2024-03-23T13:48:57;2.70;;;2.50;;
6937;SDS011;40040;42.706;23.372;2024-03-23T13:51:23;2.50;;;2.30;;
6937;SDS011;40040;42.706;23.372;2024-03-23T13:53:52;4.20;;;3.13;;
6937;SDS011;40040;42.706;23.372;2024-03-23T13:56:18;2.92;;;2.72;;
6937;SDS011;40040;42.706;23.372;2024-03-23T13:58:46;17.90;;;10.25;;
6937;SDS011;40040;42.706;23.372;2024-03-23T14:01:13;9.18;;;6.50;;
6937;SDS011;40040;42.706;23.372;2024-03-23T14:03:40;102.55;;;53.72;;
6937;SDS011;40040;42.706;23.372;2024-03-23T14:06:06;10.55;;;7.30;;
6937;SDS011;40040;42.706;23.372;2024-03-23T14:08:33;3.78;;;3.28;;
6937;SDS011;40040;42.706;23.372;2024-03-23T14:11:01;2.60;;;2.40;;
6937;SDS011;40040;42.706;23.372;2024-03-23T14:13:29;2.30;;;2.20;;
6937;SDS011;40040;42.706;23.372;2024-03-23T14:15:57;1.55;;;1.45;;
6937;SDS011;40040;42.706;23.372;2024-03-23T14:18:24;2.92;;;2.63;;
6937;SDS011;40040;42.706;23.372;2024-03-23T14:20:51;9.05;;;6.13;;
6937;SDS011;40040;42.706;23.372;2024-03-23T14:23:19;5.63;;;3.45;;
6937;SDS011;40040;42.706;23.372;2024-03-23T14:25:45;4.97;;;3.60;;
6937;SDS011;40040;42.706;23.372;2024-03-23T14:28:11;4.70;;;3.40;;
6937;SDS011;40040;42.706;23.372;2024-03-23T14:30:40;7.28;;;4.07;;
6937;SDS011;40040;42.706;23.372;2024-03-23T14:33:09;2.70;;;2.50;;
6937;SDS011;40040;42.706;23.372;2024-03-23T14:35:35;2.10;;;2.00;;
6937;SDS011;40040;42.706;23.372;2024-03-23T14:38:02;1.90;;;1.80;;
6937;SDS011;40040;42.706;23.372;2024-03-23T14:40:28;2.05;;;1.83;;
6937;SDS011;40040;42.706;23.372;2024-03-23T14:42:55;2.17;;;1.70;;
6937;SDS011;40040;42.706;23.372;2024-03-23T14:45:21;2.67;;;2.17;;
6937;SDS011;40040;42.706;23.372;2024-03-23T14:47:49;1.80;;;1.70;;
6937;SDS011;40040;42.706;23.372;2024-03-23T14:50:16;3.20;;;2.90;;
6937;SDS011;40040;42.706;23.372;2024-03-23T14:52:44;2.85;;;2.65;;
6937;SDS011;40040;42.706;23.372;2024-03-23T14:55:10;2.42;;;2.22;;
6937;SDS011;40040;42.706;23.372;2024-03-23T14:57:37;2.63;;;2.50;;
6937;SDS011;40040;42.706;23.372;2024-03-23T15:00:05;2.78;;;2.58;;
6937;SDS011;40040;42.706;23.372;2024-03-23T15:02:33;2.97;;;2.35;;
6937;SDS011;40040;42.706;23.372;2024-03-23T15:04:59;4.03;;;3.40;;
6937;SDS011;40040;42.706;23.372;2024-03-23T15:07:27;4.15;;;3.78;;
6937;SDS011;40040;42.706;23.372;2024-03-23T15:09:53;7.22;;;3.90;;
6937;SDS011;40040;42.706;23.372;2024-03-23T15:12:20;6.05;;;3.65;;
6937;SDS011;40040;42.706;23.372;2024-03-23T15:14:47;4.25;;;3.85;;
6937;SDS011;40040;42.706;23.372;2024-03-23T15:17:13;5.68;;;3.78;;
6937;SDS011;40040;42.706;23.372;2024-03-23T15:19:39;3.70;;;3.40;;
6937;SDS011;40040;42.706;23.372;2024-03-23T15:22:07;3.53;;;3.22;;
6937;SDS011;40040;42.706;23.372;2024-03-23T15:24:35;4.13;;;3.15;;
6937;SDS011;40040;42.706;23.372;2024-03-23T15:27:02;3.88;;;3.58;;
6937;SDS011;40040;42.706;23.372;2024-03-23T15:29:28;4.20;;;3.42;;